Nearby METAR Reports

   
YSSY - Sydney
Updated: Nov 17 2018 4:30 am
Clear  
Clear  
   Wind: SW 13 km/h
Wind: SW 13 km/h
Temperature: 16°C
Dew Point: 14°C
Humidity: 88%
Barometer: 1017 hPa
Visibility: More than 10 km
Cloud details: Clear
YSSY 161530Z 22007KT CAVOK 16/14 Q1017 NOSIG
YBBN - Brisbane
Updated: Nov 17 2018 4:30 am
Partly Cloudy  
Partly Cloudy  
   Wind: East 7.4 km/h
Wind: East 7.4 km/h
Temperature: 23°C
Dew Point: 17°C
Humidity: 69%
Barometer: 1015 hPa
Clouds: Partly Cloudy
Visibility: More than 10 km
Cloud details: Few Clouds 3000 ft,
Partly Cloudy 8000 ft
YBBN 161530Z 08004KT 9999 FEW030 SCT080 23/17 Q1015 NOSIG
YSNF - Norfolk Isl
Updated: Nov 17 2018 4:30 am
Mostly Cloudy  
Mostly Cloudy  
   Wind: Calm
Wind: Calm
Temperature: 16°C
Dew Point: 15°C
Humidity: 94%
Barometer: 1015 hPa
Clouds: Mostly Cloudy
Visibility: More than 10 km
Cloud details: Mostly Cloudy 4300 ft
YSNF 161530Z AUTO 00000KT 9999 // BKN043 16/15 Q1015 RF00.0/000.0
NZCH - Christchurch
Updated: Nov 17 2018 4:30 am
Mostly Cloudy  
Mostly Cloudy  
   Wind: ENE 14.8 km/h
Wind: ENE 14.8 km/h
Temperature: 13°C
Dew Point: 11°C
Humidity: 88%
Barometer: 1014 hPa
Clouds: Mostly Cloudy
Visibility: More than 10 km
Cloud details: Mostly Cloudy 1800 ft,
Mostly Cloudy 2600 ft
NZCH 161530Z AUTO 07008KT 9999 BKN018/// BKN026/// 13/11 Q1014 TEMPO BKN014
NZAA - Auckland
Updated: Nov 17 2018 4:30 am
Clear  
Clear  
   Wind: East 3.7 km/h
Wind: East 3.7 km/h
Temperature: 13°C
Dew Point: 12°C
Humidity: 94%
Barometer: 1017 hPa
Clouds: Clear
Visibility: More than 10 km
Cloud details: Clear
NZAA 161530Z AUTO 09002KT 9999 NCD 13/12 Q1017 NOSIG
NZWN - Wellington
Updated: Nov 17 2018 4:30 am
Partly Cloudy  
Partly Cloudy  
   Wind: North 24.1 km/h
Wind: North 24.1 km/h
Temperature: 15°C
Dew Point: 12°C
Humidity: 82%
Barometer: 1015 hPa
Clouds: Partly Cloudy
Visibility: More than 10 km
Cloud details: Partly Cloudy 2600 ft
NZWN 161530Z AUTO 35013KT 9999 SCT026/// 15/12 Q1015 NOSIG

Script developed by  Saratoga-weather.org Adapted for the template by  Weerstation Leuven

Equipment we use:

Weather-station
Davis VP2

Weather-program
Meteobridge

Weather-server
Home-built

Provider
WebhostingNZ

Davis VP2

Meteobridge

Home-built

WebhostingNZ